createdAt,value
2022-08-24T00:00:26.199Z,10.35
2022-08-24T00:00:57.622Z,7.78
2022-08-24T00:01:29.063Z,11.52
2022-08-24T00:02:00.557Z,10.60
2022-08-24T00:02:32.097Z,10.98
2022-08-24T00:03:03.747Z,15.00
2022-08-24T00:03:35.640Z,7.88
2022-08-24T00:04:07.179Z,10.50
2022-08-24T00:04:40.217Z,12.95
2022-08-24T00:05:14.749Z,10.55
2022-08-24T00:05:46.549Z,8.13
2022-08-24T00:06:19.356Z,15.63
2022-08-24T00:06:50.765Z,14.07
2022-08-24T00:07:27.980Z,11.63
2022-08-24T00:07:59.629Z,9.10
2022-08-24T00:08:31.358Z,8.82
2022-08-24T00:09:02.903Z,12.98
2022-08-24T00:09:34.877Z,13.50
2022-08-24T00:10:07.227Z,13.43
2022-08-24T00:10:38.905Z,13.02
2022-08-24T00:11:10.361Z,11.55
2022-08-24T00:11:41.777Z,9.63
2022-08-24T00:12:13.759Z,10.43
2022-08-24T00:12:46.248Z,8.80
2022-08-24T00:13:17.849Z,11.88
2022-08-24T00:13:49.615Z,9.07
2022-08-24T00:14:21.044Z,11.90
2022-08-24T00:14:52.449Z,10.00
2022-08-24T00:15:24.032Z,12.60
2022-08-24T00:15:55.846Z,8.05
2022-08-24T00:16:27.301Z,8.73
2022-08-24T00:16:59.364Z,10.80
2022-08-24T00:17:30.837Z,11.18
2022-08-24T00:18:02.429Z,14.18
2022-08-24T00:18:33.970Z,10.57
2022-08-24T00:19:05.419Z,12.60
2022-08-24T00:19:36.924Z,10.38
2022-08-24T00:20:09.366Z,8.77
2022-08-24T00:20:45.000Z,9.90
2022-08-24T00:21:17.266Z,9.07
2022-08-24T00:21:48.670Z,9.88
2022-08-24T00:22:20.229Z,8.93
2022-08-24T00:22:51.666Z,7.90
2022-08-24T00:23:23.059Z,11.93
2022-08-24T00:23:54.517Z,10.00
2022-08-24T00:24:26.579Z,12.27
2022-08-24T00:24:57.965Z,10.23
2022-08-24T00:25:29.391Z,8.45
2022-08-24T00:26:00.826Z,10.48
2022-08-24T00:26:32.290Z,9.68
2022-08-24T00:27:04.614Z,12.90
2022-08-24T00:27:36.158Z,14.18
2022-08-24T00:28:07.761Z,13.85
2022-08-24T00:28:39.181Z,8.73
2022-08-24T00:29:10.585Z,7.65
2022-08-24T00:29:42.013Z,11.55
2022-08-24T00:30:14.981Z,11.48
2022-08-24T00:30:46.489Z,11.63
2022-08-24T00:31:18.008Z,12.98
2022-08-24T00:31:49.696Z,10.15
2022-08-24T00:32:21.198Z,13.60
2022-08-24T00:32:52.729Z,15.13
2022-08-24T00:33:24.171Z,14.85
2022-08-24T00:33:55.676Z,12.35
2022-08-24T00:34:27.196Z,12.10
2022-08-24T00:34:59.526Z,9.95
2022-08-24T00:35:31.267Z,11.82
2022-08-24T00:36:03.455Z,11.77
2022-08-24T00:36:36.397Z,10.05
2022-08-24T00:37:07.778Z,12.60
2022-08-24T00:37:39.681Z,8.15
2022-08-24T00:38:11.171Z,13.10
2022-08-24T00:38:42.570Z,12.43
2022-08-24T00:39:14.261Z,15.02
2022-08-24T00:39:45.720Z,13.97
2022-08-24T00:40:25.311Z,13.73
2022-08-24T00:40:57.197Z,11.23
2022-08-24T00:41:29.280Z,11.27
2022-08-24T00:42:00.680Z,10.73
2022-08-24T00:42:32.631Z,17.42
2022-08-24T00:43:04.787Z,9.25
2022-08-24T00:43:36.190Z,11.63
2022-08-24T00:44:07.674Z,9.05
2022-08-24T00:44:39.120Z,11.88
2022-08-24T00:45:12.253Z,11.80
2022-08-24T00:45:46.145Z,9.85
2022-08-24T00:46:20.076Z,9.45
2022-08-24T00:47:23.664Z,9.70
2022-08-24T00:47:59.706Z,14.23
2022-08-24T00:48:33.473Z,11.35
2022-08-24T00:49:07.941Z,9.68
2022-08-24T00:49:42.201Z,9.82
2022-08-24T00:50:25.417Z,14.60
2022-08-24T00:50:58.941Z,11.73
2022-08-24T00:51:33.286Z,10.65
2022-08-24T00:52:04.811Z,14.13
2022-08-24T00:52:39.797Z,15.40
2022-08-24T00:53:34.255Z,11.98
2022-08-24T00:54:10.273Z,11.85
2022-08-24T00:54:46.333Z,15.68
2022-08-24T00:55:23.131Z,14.02
2022-08-24T00:55:57.348Z,11.05
2022-08-24T00:56:31.301Z,11.82
2022-08-24T00:57:04.894Z,10.68
2022-08-24T00:57:41.236Z,14.05
2022-08-24T00:58:16.989Z,10.27
2022-08-24T00:58:57.074Z,13.60
2022-08-24T00:59:37.314Z,8.75
2022-08-24T01:00:14.775Z,11.70
2022-08-24T01:00:51.214Z,11.30
2022-08-24T01:01:22.763Z,13.48
2022-08-24T01:01:54.735Z,9.20
2022-08-24T01:02:27.438Z,10.77
2022-08-24T01:03:00.994Z,13.07
2022-08-24T01:03:33.089Z,12.38
2022-08-24T01:04:05.436Z,9.73
2022-08-24T01:04:40.515Z,9.55
2022-08-24T01:05:12.648Z,14.52
2022-08-24T01:05:44.092Z,12.23
2022-08-24T01:06:17.482Z,10.65
2022-08-24T01:06:48.984Z,10.88
2022-08-24T01:07:21.747Z,13.15
2022-08-24T01:07:53.195Z,10.27
2022-08-24T01:08:24.767Z,13.30
2022-08-24T01:08:57.047Z,12.90
2022-08-24T01:09:30.183Z,12.25
2022-08-24T01:10:04.648Z,9.95
2022-08-24T01:10:38.776Z,8.38
2022-08-24T01:11:15.068Z,11.60
2022-08-24T01:11:46.595Z,11.18
2022-08-24T01:12:18.097Z,15.90
2022-08-24T01:13:01.170Z,11.25
2022-08-24T01:13:33.203Z,11.38
2022-08-24T01:14:05.128Z,11.38
2022-08-24T01:14:37.428Z,10.93
2022-08-24T01:15:09.872Z,14.43
2022-08-24T01:15:44.539Z,10.13
2022-08-24T01:16:16.798Z,12.55
2022-08-24T01:16:48.301Z,9.88
2022-08-24T01:17:19.718Z,12.90
2022-08-24T01:17:51.167Z,14.73
2022-08-24T01:18:23.905Z,10.93
2022-08-24T01:18:55.534Z,9.90
2022-08-24T01:19:31.287Z,9.85
2022-08-24T01:20:04.831Z,10.75
2022-08-24T01:20:36.540Z,9.07
2022-08-24T01:21:22.938Z,8.15
2022-08-24T01:22:09.346Z,11.68
2022-08-24T01:22:52.649Z,10.80
2022-08-24T01:23:36.331Z,8.77
2022-08-24T01:24:10.929Z,8.47
2022-08-24T01:24:42.507Z,9.00
2022-08-24T01:25:13.945Z,7.78
2022-08-24T01:25:45.396Z,11.27
2022-08-24T01:26:20.915Z,10.48
2022-08-24T01:26:52.339Z,10.60
2022-08-24T01:27:27.722Z,10.38
2022-08-24T01:28:01.516Z,12.07
2022-08-24T01:28:37.072Z,10.65
2022-08-24T01:29:28.706Z,12.65
2022-08-24T01:30:04.539Z,16.27
2022-08-24T01:30:36.839Z,10.95
2022-08-24T01:31:08.456Z,12.30
2022-08-24T01:31:40.008Z,7.75
2022-08-24T01:32:12.015Z,10.25
2022-08-24T01:32:52.560Z,14.10
2022-08-24T01:33:28.962Z,10.55
2022-08-24T01:34:02.537Z,11.20
2022-08-24T01:34:36.647Z,10.93
2022-08-24T01:35:08.330Z,13.48
2022-08-24T01:35:39.869Z,14.43
2022-08-24T01:36:11.274Z,13.70
2022-08-24T01:36:45.228Z,10.88
2022-08-24T01:37:16.642Z,10.20
2022-08-24T01:37:48.260Z,10.45
2022-08-24T01:38:19.768Z,11.10
2022-08-24T01:38:51.494Z,10.63
2022-08-24T01:39:30.269Z,8.98
2022-08-24T01:40:05.468Z,12.38
2022-08-24T01:40:52.287Z,10.80
2022-08-24T01:41:28.266Z,10.90
2022-08-24T01:42:00.809Z,10.45
2022-08-24T01:42:48.943Z,9.32
2022-08-24T01:43:22.577Z,9.93
2022-08-24T01:43:54.007Z,11.18
2022-08-24T01:44:27.821Z,9.32
2022-08-24T01:44:59.231Z,9.90
2022-08-24T01:45:30.867Z,9.13
2022-08-24T01:46:02.319Z,14.15
2022-08-24T01:46:34.068Z,9.37
2022-08-24T01:47:07.565Z,10.65
2022-08-24T01:47:39.068Z,8.88
2022-08-24T01:48:10.707Z,9.30
2022-08-24T01:48:42.145Z,9.20
2022-08-24T01:49:13.566Z,9.20
2022-08-24T01:49:46.233Z,8.45
2022-08-24T01:50:17.644Z,7.55
2022-08-24T01:50:50.459Z,10.50
2022-08-24T01:51:21.872Z,9.40
2022-08-24T01:51:53.316Z,10.70
2022-08-24T01:52:25.676Z,9.73
2022-08-24T01:53:06.025Z,11.33
2022-08-24T01:53:37.660Z,13.30
2022-08-24T01:54:09.278Z,8.55
2022-08-24T01:54:43.577Z,10.40
2022-08-24T01:55:15.184Z,13.15
2022-08-24T01:55:53.779Z,11.00
2022-08-24T01:56:25.184Z,11.02
2022-08-24T01:56:56.652Z,8.10
2022-08-24T01:57:28.060Z,14.02
2022-08-24T01:57:59.498Z,12.65
2022-08-24T01:58:30.891Z,12.90
2022-08-24T01:59:02.324Z,10.68
2022-08-24T01:59:33.752Z,8.32
2022-08-24T02:00:07.303Z,9.60
2022-08-24T02:00:39.023Z,12.30
2022-08-24T02:01:10.456Z,11.52
2022-08-24T02:01:45.435Z,9.68
2022-08-24T02:02:23.635Z,8.43
2022-08-24T02:02:55.235Z,13.55
2022-08-24T02:03:30.234Z,12.80
2022-08-24T02:04:03.262Z,13.80
2022-08-24T02:04:35.733Z,11.95
2022-08-24T02:05:07.902Z,12.57
2022-08-24T02:05:39.316Z,12.27
2022-08-24T02:06:10.756Z,13.05
2022-08-24T02:06:42.163Z,12.38
2022-08-24T02:07:13.578Z,10.90
2022-08-24T02:07:45.365Z,10.20
2022-08-24T02:08:16.778Z,10.10
2022-08-24T02:08:48.178Z,10.77
2022-08-24T02:09:20.019Z,9.98
2022-08-24T02:09:51.523Z,8.83
2022-08-24T02:10:22.924Z,12.90
2022-08-24T02:10:56.522Z,13.43
2022-08-24T02:11:28.335Z,8.25
2022-08-24T02:11:59.999Z,11.32
2022-08-24T02:12:31.507Z,11.23
2022-08-24T02:13:03.695Z,13.05
2022-08-24T02:13:36.090Z,13.05
2022-08-24T02:14:07.680Z,13.00
2022-08-24T02:14:39.493Z,14.27
2022-08-24T02:15:11.010Z,10.15
2022-08-24T02:15:42.579Z,11.35
2022-08-24T02:16:14.697Z,14.48
2022-08-24T02:16:46.634Z,12.57
2022-08-24T02:17:18.455Z,13.48
2022-08-24T02:17:49.888Z,13.50
2022-08-24T02:18:21.331Z,13.98
2022-08-24T02:18:53.003Z,12.70
2022-08-24T02:19:24.722Z,12.63
2022-08-24T02:19:56.146Z,10.60
2022-08-24T02:20:28.074Z,10.15
2022-08-24T02:21:00.341Z,9.23
2022-08-24T02:21:31.769Z,11.35
2022-08-24T02:22:04.078Z,9.15
2022-08-24T02:22:35.521Z,9.82
2022-08-24T02:23:07.272Z,13.60
2022-08-24T02:23:39.632Z,11.20
2022-08-24T02:24:11.068Z,11.65
2022-08-24T02:24:42.494Z,11.38
2022-08-24T02:25:14.430Z,11.57
2022-08-24T02:25:46.853Z,10.77
2022-08-24T02:26:18.430Z,7.32
2022-08-24T02:26:49.850Z,17.85
2022-08-24T02:27:21.267Z,12.85
2022-08-24T02:27:52.697Z,11.63
2022-08-24T02:28:24.097Z,14.88
2022-08-24T02:28:55.709Z,11.00
2022-08-24T02:29:29.392Z,15.40
2022-08-24T02:30:00.832Z,9.55
2022-08-24T02:30:32.355Z,9.60
2022-08-24T02:31:04.197Z,15.38
2022-08-24T02:31:35.723Z,14.48
2022-08-24T02:32:07.320Z,12.48
2022-08-24T02:32:38.795Z,14.35
2022-08-24T02:33:10.394Z,11.47
2022-08-24T02:33:41.852Z,8.60
2022-08-24T02:34:13.347Z,18.23
2022-08-24T02:34:44.742Z,14.85
2022-08-24T02:35:16.565Z,10.85
2022-08-24T02:35:47.994Z,13.02
2022-08-24T02:36:25.271Z,13.40
2022-08-24T02:36:57.823Z,10.02
2022-08-24T02:37:29.223Z,11.70
2022-08-24T02:38:00.674Z,16.13
2022-08-24T02:38:32.409Z,15.43
2022-08-24T02:39:04.606Z,15.77
2022-08-24T02:39:36.063Z,14.20
2022-08-24T02:40:08.144Z,9.35
2022-08-24T02:40:39.623Z,10.75
2022-08-24T02:41:11.413Z,13.82
2022-08-24T02:41:44.510Z,12.05
2022-08-24T02:42:15.917Z,14.85
2022-08-24T02:42:47.532Z,12.38
2022-08-24T02:43:18.992Z,10.38
2022-08-24T02:43:50.887Z,11.30
2022-08-24T02:44:22.572Z,16.52
2022-08-24T02:44:53.979Z,13.93
2022-08-24T02:45:26.602Z,12.80
2022-08-24T02:45:58.063Z,10.20
2022-08-24T02:46:30.246Z,11.80
2022-08-24T02:47:01.738Z,13.55
2022-08-24T02:47:39.263Z,12.25
2022-08-24T02:48:11.321Z,13.23
2022-08-24T02:48:42.737Z,13.07
2022-08-24T02:49:14.399Z,12.07
2022-08-24T02:49:45.805Z,15.40
2022-08-24T02:50:18.006Z,11.77
2022-08-24T02:50:50.566Z,13.45
2022-08-24T02:51:23.483Z,11.43
2022-08-24T02:51:57.484Z,14.82
2022-08-24T02:52:29.123Z,15.88
2022-08-24T02:53:00.544Z,10.82
2022-08-24T02:53:31.955Z,13.20
2022-08-24T02:54:04.108Z,15.48
2022-08-24T02:54:35.885Z,12.88
2022-08-24T02:55:08.655Z,15.07
2022-08-24T02:55:40.716Z,13.23
2022-08-24T02:56:12.093Z,11.50
2022-08-24T02:56:43.937Z,12.63
2022-08-24T02:57:15.343Z,12.95
2022-08-24T02:57:46.922Z,10.95
2022-08-24T02:58:18.323Z,12.63
2022-08-24T02:58:49.859Z,14.50
2022-08-24T02:59:25.597Z,11.88
2022-08-24T02:59:57.019Z,15.05
2022-08-24T03:00:28.397Z,12.15
2022-08-24T03:00:59.898Z,14.68
2022-08-24T03:01:32.530Z,13.40
2022-08-24T03:02:04.128Z,13.05
2022-08-24T03:02:35.658Z,13.00
2022-08-24T03:03:07.925Z,14.18
2022-08-24T03:03:39.488Z,13.45
2022-08-24T03:04:10.924Z,11.05
2022-08-24T03:04:42.404Z,17.45
2022-08-24T03:05:13.840Z,12.82
2022-08-24T03:05:45.238Z,17.00
2022-08-24T03:06:17.052Z,12.88
2022-08-24T03:06:48.457Z,14.85
2022-08-24T03:07:19.862Z,13.13
2022-08-24T03:07:52.358Z,13.02
2022-08-24T03:08:23.879Z,12.32
2022-08-24T03:08:56.536Z,12.57
2022-08-24T03:09:28.801Z,13.95
2022-08-24T03:10:00.444Z,16.90
2022-08-24T03:10:32.184Z,13.10
2022-08-24T03:11:04.762Z,12.73
2022-08-24T03:11:36.707Z,13.43
2022-08-24T03:12:08.230Z,11.20
2022-08-24T03:12:39.868Z,9.55
2022-08-24T03:13:11.270Z,16.02
2022-08-24T03:13:42.652Z,7.73
2022-08-24T03:14:15.106Z,9.35
2022-08-24T03:14:46.540Z,12.45
2022-08-24T03:15:18.424Z,12.30
2022-08-24T03:15:52.395Z,13.40
2022-08-24T03:16:23.850Z,10.73
2022-08-24T03:16:55.400Z,16.95
2022-08-24T03:17:26.809Z,16.48
2022-08-24T03:17:58.251Z,14.65
2022-08-24T03:18:29.925Z,15.00
2022-08-24T03:19:01.315Z,14.73
2022-08-24T03:19:32.714Z,15.70
2022-08-24T03:20:05.875Z,14.50
2022-08-24T03:20:37.297Z,9.45
2022-08-24T03:21:08.711Z,11.30
2022-08-24T03:21:40.158Z,13.27
2022-08-24T03:22:11.586Z,15.80
2022-08-24T03:22:43.164Z,14.32
2022-08-24T03:23:14.619Z,16.63
2022-08-24T03:23:46.165Z,16.73
2022-08-24T03:24:17.586Z,12.63
2022-08-24T03:24:48.966Z,15.65
2022-08-24T03:25:21.533Z,15.85
2022-08-24T03:25:54.991Z,14.68
2022-08-24T03:26:26.412Z,16.43
2022-08-24T03:26:57.948Z,13.38
2022-08-24T03:27:31.016Z,12.95
2022-08-24T03:28:03.354Z,11.52
2022-08-24T03:28:45.121Z,17.65
2022-08-24T03:29:16.804Z,10.07
2022-08-24T03:29:48.180Z,13.65
2022-08-24T03:30:21.767Z,15.85
2022-08-24T03:30:53.372Z,16.95
2022-08-24T03:31:25.831Z,13.48
2022-08-24T03:31:57.210Z,13.05
2022-08-24T03:32:30.675Z,16.77
2022-08-24T03:33:02.190Z,14.00
2022-08-24T03:33:33.766Z,14.90
2022-08-24T03:34:05.328Z,12.77
2022-08-24T03:34:37.055Z,17.45
2022-08-24T03:35:09.677Z,15.10
2022-08-24T03:35:41.070Z,14.80
2022-08-24T03:36:14.338Z,16.90
2022-08-24T03:36:46.093Z,15.57
2022-08-24T03:37:17.485Z,17.40
2022-08-24T03:37:49.592Z,14.75
2022-08-24T03:38:21.016Z,20.00
2022-08-24T03:38:52.418Z,14.68
2022-08-24T03:39:23.809Z,13.13
2022-08-24T03:39:55.236Z,15.45
2022-08-24T03:40:26.796Z,11.32
2022-08-24T03:40:58.302Z,12.80
2022-08-24T03:41:29.716Z,14.10
2022-08-24T03:42:01.094Z,18.23
2022-08-24T03:42:34.838Z,16.27
2022-08-24T03:43:06.416Z,13.07
2022-08-24T03:43:38.521Z,15.23
2022-08-24T03:44:09.937Z,19.63
2022-08-24T03:44:41.435Z,13.60
2022-08-24T03:45:12.913Z,14.88
2022-08-24T03:45:46.374Z,19.33
2022-08-24T03:46:25.121Z,11.10
2022-08-24T03:46:56.881Z,13.98
2022-08-24T03:47:28.328Z,13.63
2022-08-24T03:47:59.810Z,11.55
2022-08-24T03:48:31.213Z,15.65
2022-08-24T03:49:03.608Z,15.30
2022-08-24T03:49:35.045Z,11.90
2022-08-24T03:50:06.895Z,17.60
2022-08-24T03:50:38.323Z,14.38
2022-08-24T03:51:16.443Z,16.20
2022-08-24T03:51:48.095Z,13.60
2022-08-24T03:52:19.551Z,11.40
2022-08-24T03:52:53.392Z,14.50
2022-08-24T03:53:24.818Z,16.45
2022-08-24T03:53:57.015Z,14.43
2022-08-24T03:54:28.441Z,14.60
2022-08-24T03:54:59.824Z,12.00
2022-08-24T03:55:31.221Z,14.38
2022-08-24T03:56:07.014Z,13.97
2022-08-24T03:56:39.216Z,13.10
2022-08-24T03:57:10.761Z,15.77
2022-08-24T03:57:42.215Z,17.67
2022-08-24T03:58:13.996Z,16.95
2022-08-24T03:58:45.739Z,15.00
2022-08-24T03:59:19.948Z,10.82
2022-08-24T03:59:51.681Z,18.05
2022-08-24T04:00:23.101Z,15.30
2022-08-24T04:00:54.514Z,14.90
2022-08-24T04:01:26.030Z,13.00
2022-08-24T04:01:57.873Z,14.30
2022-08-24T04:02:32.859Z,12.50
2022-08-24T04:03:04.633Z,12.18
2022-08-24T04:03:39.964Z,14.65
2022-08-24T04:04:11.373Z,16.33
2022-08-24T04:04:43.170Z,13.75
2022-08-24T04:05:15.744Z,10.57
2022-08-24T04:05:47.137Z,13.95
2022-08-24T04:06:20.270Z,15.95
2022-08-24T04:06:52.066Z,13.88
2022-08-24T04:07:23.482Z,17.45
2022-08-24T04:07:54.889Z,19.73
2022-08-24T04:08:26.322Z,13.18
2022-08-24T04:08:57.887Z,15.55
2022-08-24T04:09:29.441Z,18.20
2022-08-24T04:10:01.175Z,14.13
2022-08-24T04:10:32.960Z,18.95
2022-08-24T04:11:04.708Z,13.40
2022-08-24T04:11:39.471Z,17.55
2022-08-24T04:12:12.628Z,13.80
2022-08-24T04:12:44.057Z,17.10
2022-08-24T04:13:17.746Z,11.25
2022-08-24T04:13:50.772Z,11.85
2022-08-24T04:14:26.720Z,13.65
2022-08-24T04:14:59.260Z,17.73
2022-08-24T04:15:30.838Z,15.50
2022-08-24T04:16:06.508Z,15.77
2022-08-24T04:16:38.066Z,14.30
2022-08-24T04:17:09.536Z,16.23
2022-08-24T04:17:40.951Z,15.70
2022-08-24T04:18:12.365Z,15.32
2022-08-24T04:18:43.978Z,19.25
2022-08-24T04:19:15.468Z,18.85
2022-08-24T04:19:46.876Z,13.70
2022-08-24T04:20:18.468Z,15.88
2022-08-24T04:20:49.912Z,14.82
2022-08-24T04:21:21.276Z,17.63
2022-08-24T04:21:52.771Z,16.52
2022-08-24T04:22:25.154Z,15.95
2022-08-24T04:22:56.667Z,13.43
2022-08-24T04:23:29.131Z,18.58
2022-08-24T04:24:19.168Z,15.57
2022-08-24T04:24:51.111Z,16.35
2022-08-24T04:25:25.057Z,17.67
2022-08-24T04:26:01.788Z,17.52
2022-08-24T04:26:45.608Z,15.50
2022-08-24T04:27:17.519Z,14.82
2022-08-24T04:27:49.188Z,15.40
2022-08-24T04:28:20.639Z,19.02
2022-08-24T04:28:52.089Z,16.10
2022-08-24T04:29:23.499Z,12.38
2022-08-24T04:29:54.915Z,16.38
2022-08-24T04:30:26.332Z,12.73
2022-08-24T04:30:57.957Z,14.75
2022-08-24T04:31:29.509Z,18.38
2022-08-24T04:32:01.038Z,21.90
2022-08-24T04:32:32.712Z,15.53
2022-08-24T04:33:04.268Z,13.57
2022-08-24T04:33:36.088Z,16.35
2022-08-24T04:34:07.917Z,16.15
2022-08-24T04:34:39.330Z,20.35
2022-08-24T04:35:10.754Z,15.60
2022-08-24T04:35:43.734Z,11.18
2022-08-24T04:36:16.105Z,19.23
2022-08-24T04:36:47.561Z,12.73
2022-08-24T04:37:18.961Z,14.52
2022-08-24T04:37:59.322Z,13.95
2022-08-24T04:38:30.740Z,14.73
2022-08-24T04:39:02.819Z,18.38
2022-08-24T04:39:34.252Z,14.30
2022-08-24T04:40:05.935Z,13.00
2022-08-24T04:40:44.181Z,13.93
2022-08-24T04:41:19.187Z,13.95
2022-08-24T04:42:03.254Z,16.88
2022-08-24T04:42:37.759Z,13.68
2022-08-24T04:43:09.426Z,14.35
2022-08-24T04:43:41.792Z,15.43
2022-08-24T04:44:13.226Z,11.68
2022-08-24T04:44:44.635Z,12.77
2022-08-24T04:45:16.037Z,16.65
2022-08-24T04:45:48.205Z,18.40
2022-08-24T04:46:19.975Z,15.13
2022-08-24T04:46:51.377Z,18.25
2022-08-24T04:47:22.801Z,22.48
2022-08-24T04:47:54.247Z,13.07
2022-08-24T04:48:25.638Z,13.55
2022-08-24T04:48:57.129Z,21.83
2022-08-24T04:49:28.801Z,19.08
2022-08-24T04:50:00.221Z,17.67
2022-08-24T04:50:34.543Z,17.02
2022-08-24T04:51:08.428Z,15.38
2022-08-24T04:51:42.417Z,17.35
2022-08-24T04:52:14.005Z,14.82
2022-08-24T04:52:45.462Z,13.88
2022-08-24T04:53:19.376Z,12.37
2022-08-24T04:53:50.785Z,19.73
2022-08-24T04:54:22.194Z,20.80
2022-08-24T04:54:53.589Z,18.40
2022-08-24T04:55:24.978Z,29.00
2022-08-24T04:55:56.373Z,27.60
2022-08-24T04:56:27.742Z,22.40
2022-08-24T04:56:59.126Z,18.02
2022-08-24T04:57:30.532Z,20.33
2022-08-24T04:58:02.687Z,22.05
2022-08-24T04:58:34.098Z,19.10
2022-08-24T04:59:05.897Z,16.83
2022-08-24T04:59:37.310Z,19.88
2022-08-24T05:00:09.028Z,13.88
2022-08-24T05:00:40.822Z,15.57
2022-08-24T05:01:17.145Z,17.23
2022-08-24T05:01:48.697Z,17.87
2022-08-24T05:02:20.236Z,15.82
2022-08-24T05:02:51.665Z,19.48
2022-08-24T05:03:23.108Z,18.98
2022-08-24T05:03:55.085Z,16.42
2022-08-24T05:04:26.547Z,18.20
2022-08-24T05:04:58.308Z,17.35
2022-08-24T05:05:29.752Z,22.73
2022-08-24T05:06:01.211Z,20.63
2022-08-24T05:06:33.141Z,21.98
2022-08-24T05:07:05.172Z,18.17
2022-08-24T05:07:37.205Z,12.63
2022-08-24T05:08:08.781Z,18.10
2022-08-24T05:08:42.556Z,19.88
2022-08-24T05:09:13.954Z,14.32
2022-08-24T05:09:47.575Z,16.05
2022-08-24T05:10:19.015Z,16.88
2022-08-24T05:10:50.433Z,22.90
2022-08-24T05:11:22.369Z,17.50
2022-08-24T05:11:53.779Z,17.15
2022-08-24T05:12:25.174Z,20.83
2022-08-24T05:12:56.628Z,15.85
2022-08-24T05:13:28.008Z,15.93
2022-08-24T05:13:59.649Z,19.85
2022-08-24T05:14:31.030Z,15.18
2022-08-24T05:15:02.559Z,17.67
2022-08-24T05:15:34.695Z,20.55
2022-08-24T05:16:07.079Z,14.43
2022-08-24T05:16:38.540Z,16.13
2022-08-24T05:17:10.547Z,20.15
2022-08-24T05:17:42.383Z,16.50
2022-08-24T05:18:18.165Z,17.98
2022-08-24T05:18:49.684Z,18.63
2022-08-24T05:19:21.271Z,20.85
2022-08-24T05:19:52.850Z,18.08
2022-08-24T05:20:24.249Z,12.85
2022-08-24T05:20:55.898Z,19.45
2022-08-24T05:21:27.347Z,12.43
2022-08-24T05:21:58.736Z,18.92
2022-08-24T05:22:30.337Z,16.50
2022-08-24T05:23:04.488Z,21.47
2022-08-24T05:23:36.485Z,16.33
2022-08-24T05:24:07.951Z,16.23
2022-08-24T05:24:39.367Z,18.83
2022-08-24T05:25:10.772Z,19.30
2022-08-24T05:25:42.263Z,13.50
2022-08-24T05:26:15.364Z,16.15
2022-08-24T05:26:47.151Z,17.17
2022-08-24T05:27:19.001Z,16.95
2022-08-24T05:27:50.718Z,22.77
2022-08-24T05:28:22.107Z,17.35
2022-08-24T05:28:58.740Z,16.38
2022-08-24T05:29:30.131Z,20.70
2022-08-24T05:30:01.552Z,22.05
2022-08-24T05:30:33.287Z,22.40
2022-08-24T05:31:08.832Z,16.95
2022-08-24T05:31:42.829Z,24.42
2022-08-24T05:32:16.307Z,15.65
2022-08-24T05:32:47.820Z,18.65
2022-08-24T05:33:19.220Z,17.77
2022-08-24T05:33:50.997Z,19.58
2022-08-24T05:34:23.803Z,19.52
2022-08-24T05:34:55.232Z,17.58
2022-08-24T05:35:26.677Z,21.65
2022-08-24T05:35:58.174Z,24.45
2022-08-24T05:36:31.205Z,15.60
2022-08-24T05:37:02.592Z,16.80
2022-08-24T05:37:37.950Z,23.48
2022-08-24T05:38:09.381Z,17.73
2022-08-24T05:38:40.854Z,15.68
2022-08-24T05:39:13.549Z,22.75
2022-08-24T05:39:44.964Z,16.43
2022-08-24T05:40:17.898Z,15.27
2022-08-24T05:40:49.372Z,26.80
2022-08-24T05:41:21.296Z,21.30
2022-08-24T05:41:52.721Z,15.77
2022-08-24T05:42:24.141Z,15.45
2022-08-24T05:42:55.677Z,17.15
2022-08-24T05:43:27.052Z,13.60
2022-08-24T05:43:58.478Z,15.20
2022-08-24T05:44:31.147Z,26.17
2022-08-24T05:45:02.989Z,24.70
2022-08-24T05:45:34.436Z,23.88
2022-08-24T05:46:06.258Z,22.77
2022-08-24T05:46:37.684Z,23.10
2022-08-24T05:47:09.153Z,20.13
2022-08-24T05:47:40.548Z,26.40
2022-08-24T05:48:11.959Z,23.92
2022-08-24T05:48:43.416Z,25.77
2022-08-24T05:49:24.688Z,19.73
2022-08-24T05:49:56.109Z,22.05
2022-08-24T05:50:27.560Z,22.95
2022-08-24T05:50:59.113Z,18.10
2022-08-24T05:51:30.546Z,25.70
2022-08-24T05:52:02.170Z,21.83
2022-08-24T05:52:34.391Z,21.85
2022-08-24T05:53:05.979Z,21.27
2022-08-24T05:53:37.953Z,21.73
2022-08-24T05:54:09.974Z,22.60
2022-08-24T05:54:41.387Z,18.58
2022-08-24T05:55:14.526Z,20.40
2022-08-24T05:55:45.919Z,25.50
2022-08-24T05:56:18.159Z,21.77
2022-08-24T05:56:49.569Z,21.45
2022-08-24T05:57:21.210Z,26.45
2022-08-24T05:57:52.645Z,26.52
2022-08-24T05:58:30.751Z,21.58
2022-08-24T05:59:02.842Z,23.33
2022-08-24T05:59:34.267Z,21.00
2022-08-24T06:00:06.332Z,22.27
2022-08-24T06:00:37.895Z,26.75
2022-08-24T06:01:10.351Z,26.73
2022-08-24T06:01:45.145Z,21.27
2022-08-24T06:02:18.174Z,24.98
2022-08-24T06:02:49.750Z,28.77
2022-08-24T06:03:21.350Z,23.65
2022-08-24T06:03:53.409Z,25.30
2022-08-24T06:04:24.819Z,25.55
2022-08-24T06:04:57.742Z,22.23
2022-08-24T06:05:29.240Z,17.20
2022-08-24T06:06:01.759Z,18.05
2022-08-24T06:06:33.274Z,15.63
2022-08-24T06:07:05.307Z,25.05
2022-08-24T06:07:36.713Z,27.95
2022-08-24T06:08:08.249Z,23.92
2022-08-24T06:08:41.830Z,26.38
2022-08-24T06:09:13.461Z,22.58
2022-08-24T06:09:44.865Z,27.48
2022-08-24T06:10:35.808Z,19.48
2022-08-24T06:11:07.856Z,22.67
2022-08-24T06:11:41.243Z,23.55
2022-08-24T06:12:13.166Z,23.40
2022-08-24T06:12:44.569Z,19.00
2022-08-24T06:13:16.492Z,28.45
2022-08-24T06:13:50.325Z,27.55
2022-08-24T06:14:27.228Z,22.33
2022-08-24T06:15:00.966Z,22.58
2022-08-24T06:15:32.557Z,28.02
2022-08-24T06:16:20.385Z,21.55
2022-08-24T06:16:55.468Z,24.87
2022-08-24T06:17:27.023Z,21.33
2022-08-24T06:17:58.542Z,26.30
2022-08-24T06:18:30.014Z,21.30
2022-08-24T06:19:01.631Z,23.10
2022-08-24T06:19:33.622Z,21.00
2022-08-24T06:20:05.611Z,23.33
2022-08-24T06:20:41.231Z,29.92
2022-08-24T06:21:14.399Z,24.58
2022-08-24T06:21:49.419Z,23.27
2022-08-24T06:22:20.867Z,18.38
2022-08-24T06:22:52.270Z,30.02
2022-08-24T06:23:23.723Z,26.55
2022-08-24T06:23:55.607Z,28.42
2022-08-24T06:24:27.772Z,35.30
2022-08-24T06:25:00.621Z,32.40
2022-08-24T06:25:32.053Z,23.20
2022-08-24T06:26:04.424Z,26.98
2022-08-24T06:26:36.472Z,25.70
2022-08-24T06:27:07.923Z,25.77
2022-08-24T06:27:39.380Z,26.50
2022-08-24T06:28:10.805Z,25.92
2022-08-24T06:28:42.248Z,29.75
2022-08-24T06:29:14.755Z,28.30
2022-08-24T06:29:46.163Z,20.48
2022-08-24T06:30:17.618Z,31.25
2022-08-24T06:30:49.010Z,29.55
2022-08-24T06:31:21.081Z,20.30
2022-08-24T06:31:54.646Z,22.63
2022-08-24T06:32:27.678Z,24.90
2022-08-24T06:33:00.324Z,24.10
2022-08-24T06:33:31.773Z,22.65
2022-08-24T06:34:03.430Z,24.02
2022-08-24T06:34:34.876Z,23.58
2022-08-24T06:35:06.584Z,24.00
2022-08-24T06:35:47.164Z,26.35
2022-08-24T06:36:20.586Z,25.42
2022-08-24T06:36:54.438Z,22.77
2022-08-24T06:37:26.238Z,22.42
2022-08-24T06:38:00.231Z,18.35
2022-08-24T06:38:31.833Z,28.95
2022-08-24T06:39:05.938Z,28.77
2022-08-24T06:39:38.650Z,26.42
2022-08-24T06:40:10.359Z,24.42
2022-08-24T06:40:41.951Z,16.65
2022-08-24T06:41:13.649Z,27.45
2022-08-24T06:41:45.036Z,25.58
2022-08-24T06:42:16.476Z,25.20
2022-08-24T06:42:48.218Z,21.48
2022-08-24T06:43:20.034Z,27.27
2022-08-24T06:43:51.765Z,25.95
2022-08-24T06:44:23.239Z,24.48
2022-08-24T06:44:54.876Z,25.23
2022-08-24T06:45:26.321Z,22.08
2022-08-24T06:45:57.951Z,30.40
2022-08-24T06:46:32.625Z,15.60
2022-08-24T06:47:04.703Z,20.60
2022-08-24T06:47:36.153Z,25.42
2022-08-24T06:48:07.599Z,32.30
2022-08-24T06:48:39.373Z,21.60
2022-08-24T06:49:10.764Z,24.42
2022-08-24T06:49:42.223Z,34.42
2022-08-24T06:50:13.752Z,20.90
2022-08-24T06:50:45.184Z,23.15
2022-08-24T06:51:18.282Z,26.08
2022-08-24T06:51:50.877Z,29.15
2022-08-24T06:52:22.502Z,26.80
2022-08-24T06:52:53.890Z,28.35
2022-08-24T06:53:25.878Z,29.02
2022-08-24T06:53:57.284Z,25.73
2022-08-24T06:54:28.699Z,24.98
2022-08-24T06:55:00.156Z,25.10
2022-08-24T06:55:31.624Z,24.45
2022-08-24T06:56:03.143Z,24.60
2022-08-24T06:56:35.864Z,22.00
2022-08-24T06:57:07.359Z,25.83
2022-08-24T06:57:38.786Z,20.42
2022-08-24T06:58:10.184Z,30.37
2022-08-24T06:58:41.623Z,22.90
2022-08-24T06:59:13.034Z,25.85
2022-08-24T06:59:44.505Z,22.02
2022-08-24T07:00:16.218Z,19.38
2022-08-24T07:00:48.120Z,19.15
2022-08-24T07:01:21.638Z,33.47
2022-08-24T07:01:53.101Z,32.60